Time;durP1;ratioP1;P1;durP2;ratioP2;P2;SDS_P1;SDS_P2;PMS_P1;PMS_P2;Temp;Humidity;BMP_temperature;BMP_pressure;BME280_temperature;BME280_humidity;BME280_pressure;Samples;Min_cycle;Max_cycle;Signal;HPM_P1;HPM_P2
2022/08/15 00:00:44;;;;;;;;;14.00;11.67;;;;;22.27;67.94;100151.13;4975239;28;45994;-70
2022/08/15 00:03:36;;;;;;;;;13.67;13.00;;;;;22.35;67.12;100146.22;4974749;28;45480;-68
2022/08/15 00:06:05;;;;;;;;;13.00;11.33;;;;;22.42;67.11;100151.13;4981601;28;45343;-67
2022/08/15 00:08:36;;;;;;;;;15.00;15.00;;;;;22.46;66.71;100145.63;4973229;28;45528;-67
2022/08/15 00:11:15;;;;;;;;;16.00;14.33;;;;;22.51;67.31;100138.19;4974790;28;46271;-64
2022/08/15 00:13:58;;;;;;;;;12.33;12.33;;;;;22.53;66.53;100144.31;4974321;28;45444;-65
2022/08/15 00:16:37;;;;;;;;;17.33;14.33;;;;;22.56;66.60;100136.13;4976808;28;45471;-65
2022/08/15 00:19:08;;;;;;;;;14.33;14.33;;;;;22.45;66.67;100115.41;4977468;28;45743;-66
2022/08/15 00:21:43;;;;;;;;;18.33;14.33;;;;;22.50;66.54;100124.00;4973839;28;45716;-66
2022/08/15 00:24:16;;;;;;;;;16.00;15.33;;;;;22.40;66.53;100114.78;4973540;28;45412;-65
2022/08/15 00:26:50;;;;;;;;;18.33;17.67;;;;;22.50;66.34;100137.34;4973622;28;45689;-66
2022/08/15 00:29:21;;;;;;;;;21.33;14.33;;;;;22.39;66.51;100127.28;4974344;28;45554;-65
2022/08/15 00:31:48;;;;;;;;;11.33;11.33;;;;;22.35;66.69;100104.41;4964845;28;45598;-65
2022/08/15 00:34:16;;;;;;;;;11.00;11.00;;;;;22.47;66.51;100126.88;4963253;28;46509;-68
2022/08/15 00:36:58;;;;;;;;;19.33;15.00;;;;;22.51;65.98;100128.38;4971895;28;46143;-71
2022/08/15 00:39:27;;;;;;;;;17.00;15.33;;;;;22.54;65.83;100128.22;4972858;28;45472;-71
2022/08/15 00:41:53;;;;;;;;;17.00;14.33;;;;;22.56;65.88;100120.97;4971917;28;46482;-69
2022/08/15 00:44:40;;;;;;;;;15.00;15.00;;;;;22.52;65.79;100113.22;4973797;28;45458;-66
2022/08/15 00:47:11;;;;;;;;;16.33;14.67;;;;;22.56;65.46;100120.13;4973681;28;45448;-65
2022/08/15 00:49:37;;;;;;;;;14.33;14.33;;;;;22.56;65.70;100123.63;4974105;28;45251;-66
2022/08/15 00:52:08;;;;;;;;;14.00;13.67;;;;;22.55;65.48;100119.25;4974492;28;45386;-67
2022/08/15 00:54:39;;;;;;;;;13.67;13.67;;;;;22.55;66.11;100121.06;4975192;28;45349;-65
2022/08/15 00:57:29;;;;;;;;;15.33;14.00;;;;;22.53;65.55;100120.31;4975109;28;45591;-64
2022/08/15 00:59:59;;;;;;;;;19.33;15.00;;;;;22.56;64.87;100125.44;4970483;28;45412;-66
2022/08/15 01:02:30;;;;;;;;;17.00;16.33;;;;;22.55;65.59;100116.59;4971266;28;46164;-66
2022/08/15 01:04:56;;;;;;;;;12.67;12.67;;;;;22.48;64.67;100112.56;4971359;28;45816;-68
2022/08/15 01:07:22;;;;;;;;;16.00;14.33;;;;;22.58;65.17;100124.41;4972054;28;45507;-66
2022/08/15 01:09:50;;;;;;;;;17.50;15.00;;;;;22.51;64.56;100103.50;4972865;28;45672;-65
2022/08/15 01:12:23;;;;;;;;;18.00;16.33;;;;;22.62;64.45;100119.78;4972299;28;46192;-65
2022/08/15 01:14:53;;;;;;;;;17.67;17.67;;;;;22.59;64.67;100112.81;4974129;28;45490;-67
2022/08/15 01:17:20;;;;;;;;;18.67;15.33;;;;;22.62;64.66;100114.44;4972384;28;45769;-68
2022/08/15 01:19:53;;;;;;;;;18.00;17.67;;;;;22.52;64.86;100106.09;4971676;28;45818;-64
2022/08/15 01:22:56;;;;;;;;;15.00;15.00;;;;;22.56;64.24;100118.31;4972112;28;45459;-64
2022/08/15 01:25:29;;;;;;;;;17.00;14.67;;;;;22.52;65.08;100108.78;4961953;28;45343;-66
2022/08/15 01:28:07;;;;;;;;;16.67;15.33;;;;;22.55;64.68;100113.06;4971846;28;45576;-66
2022/08/15 01:30:40;;;;;;;;;19.00;15.33;;;;;22.60;65.14;100116.31;4972896;28;45539;-65
2022/08/15 01:33:06;;;;;;;;;16.67;15.67;;;;;22.52;64.65;100105.22;4972607;28;46646;-67
2022/08/15 01:35:32;;;;;;;;;13.00;13.00;;;;;22.51;64.66;100095.50;4972056;28;45795;-64
2022/08/15 01:37:58;;;;;;;;;13.00;13.00;;;;;22.55;65.27;100118.41;4971777;28;45306;-64
2022/08/15 01:40:33;;;;;;;;;15.00;15.00;;;;;22.57;64.51;100120.03;4971423;28;46509;-66
2022/08/15 01:43:00;;;;;;;;;13.00;13.00;;;;;22.59;64.07;100119.94;4971459;28;46156;-67
2022/08/15 01:45:29;;;;;;;;;13.00;12.33;;;;;22.53;63.66;100110.47;4972038;28;45381;-66
2022/08/15 01:48:12;;;;;;;;;16.67;14.00;;;;;22.50;63.96;100112.47;4971898;28;45697;-66
2022/08/15 01:50:50;;;;;;;;;15.67;13.67;;;;;22.52;63.93;100115.91;4970457;28;45427;-68
2022/08/15 01:53:27;;;;;;;;;19.33;15.67;;;;;22.48;64.77;100106.38;4971554;28;45776;-69
2022/08/15 01:56:15;;;;;;;;;14.00;14.00;;;;;22.48;63.98;100115.22;4970738;28;45328;-64
2022/08/15 01:58:43;;;;;;;;;20.00;17.67;;;;;22.12;64.26;100071.00;4961595;28;45262;-66
2022/08/15 02:01:14;;;;;;;;;16.00;16.00;;;;;22.28;64.25;100107.47;4971944;28;45818;-66
2022/08/15 02:03:43;;;;;;;;;18.33;18.33;;;;;22.17;64.39;100092.94;4971058;28;46576;-66
2022/08/15 02:06:21;;;;;;;;;19.67;19.67;;;;;22.20;64.49;100105.22;4971419;28;45743;-65
2022/08/15 02:08:47;;;;;;;;;17.67;15.67;;;;;22.17;65.38;100113.41;4972719;28;45376;-66
2022/08/15 02:11:17;;;;;;;;;21.67;20.33;;;;;22.10;64.75;100104.88;4971185;28;45604;-64
2022/08/15 02:13:44;;;;;;;;;20.33;18.00;;;;;22.02;64.54;100107.13;4971875;28;45323;-65
2022/08/15 02:16:13;;;;;;;;;19.00;17.00;;;;;22.07;65.03;100115.72;4971717;28;45412;-66
2022/08/15 02:18:39;;;;;;;;;19.33;18.67;;;;;22.05;64.88;100109.63;4971916;28;45470;-66
2022/08/15 02:21:04;;;;;;;;;15.67;15.67;;;;;22.06;64.34;100091.81;4971414;28;46045;-66
2022/08/15 02:23:30;;;;;;;;;16.33;16.33;;;;;22.17;63.88;100113.41;4971286;28;45983;-65
2022/08/15 02:25:55;;;;;;;;;15.67;15.00;;;;;22.09;63.97;100086.28;4972849;28;45591;-65
2022/08/15 02:28:23;;;;;;;;;14.67;14.67;;;;;22.20;64.01;100099.91;4971224;28;45389;-67
2022/08/15 02:30:50;;;;;;;;;21.67;20.33;;;;;22.11;63.86;100097.75;4971672;28;45246;-64
2022/08/15 02:33:15;;;;;;;;;22.67;21.67;;;;;22.03;63.96;100096.38;4971840;28;46484;-68
2022/08/15 02:35:41;;;;;;;;;17.33;15.00;;;;;21.92;64.03;100085.44;4970825;28;45550;-66
2022/08/15 02:38:07;;;;;;;;;19.33;18.33;;;;;21.88;63.71;100078.56;4970903;28;45731;-63
2022/08/15 02:40:34;;;;;;;;;25.00;21.67;;;;;21.89;64.10;100087.41;4969613;28;45513;-65
2022/08/15 02:43:07;;;;;;;;;20.67;18.33;;;;;21.84;63.82;100085.00;4970917;28;45361;-68
2022/08/15 02:45:34;;;;;;;;;19.33;18.67;;;;;21.72;63.84;100061.69;4958553;28;45918;-67
2022/08/15 02:48:00;;;;;;;;;20.67;17.33;;;;;21.49;64.57;100037.16;4971216;28;45620;-65
2022/08/15 02:50:26;;;;;;;;;19.00;18.33;;;;;21.72;64.23;100086.53;4974007;28;45389;-65
2022/08/15 02:52:52;;;;;;;;;22.67;20.67;;;;;21.58;64.18;100051.78;4973629;28;46167;-66
2022/08/15 02:55:19;;;;;;;;;15.33;15.33;;;;;21.71;64.23;100079.50;4974078;28;45617;-66
2022/08/15 02:57:45;;;;;;;;;19.00;19.00;;;;;21.74;64.36;100084.66;4974577;28;45660;-64
2022/08/15 03:00:16;;;;;;;;;23.33;20.67;;;;;21.69;64.53;100075.16;4973485;28;45434;-64
2022/08/15 03:02:50;;;;;;;;;23.00;19.33;;;;;21.62;65.17;100073.78;4975139;28;46121;-66
2022/08/15 03:05:16;;;;;;;;;27.00;22.67;;;;;21.54;65.24;100083.06;4975328;28;45289;-65
2022/08/15 03:07:41;;;;;;;;;20.67;20.67;;;;;21.50;65.61;100084.19;4974051;28;45538;-69
2022/08/15 03:10:07;;;;;;;;;23.00;21.67;;;;;21.31;66.08;100062.97;4973859;28;45365;-67
2022/08/15 03:12:33;;;;;;;;;24.00;23.00;;;;;21.36;66.12;100065.38;4974549;28;45671;-67
2022/08/15 03:15:03;;;;;;;;;25.00;21.00;;;;;21.40;66.44;100088.25;4977986;28;45320;-66
2022/08/15 03:17:29;;;;;;;;;24.00;21.33;;;;;21.35;66.31;100079.63;4977909;28;45389;-67
2022/08/15 03:19:55;;;;;;;;;25.67;22.33;;;;;21.22;66.53;100054.59;4973291;28;45538;-64
2022/08/15 03:22:21;;;;;;;;;25.33;25.33;;;;;21.29;66.61;100074.63;4971483;28;45479;-67
2022/08/15 03:24:47;;;;;;;;;24.33;22.67;;;;;21.22;66.68;100067.91;4977254;28;45353;-65
2022/08/15 03:27:12;;;;;;;;;23.33;20.67;;;;;21.12;66.79;100057.75;4973058;28;45547;-64
2022/08/15 03:29:39;;;;;;;;;24.67;22.33;;;;;21.14;67.10;100052.31;4973371;28;45382;-65
2022/08/15 03:32:12;;;;;;;;;21.00;19.00;;;;;21.23;66.85;100058.97;4971999;28;45565;-66
2022/08/15 03:34:38;;;;;;;;;19.00;18.33;;;;;21.31;66.31;100070.94;4976231;28;45335;-67
2022/08/15 03:37:04;;;;;;;;;23.67;23.33;;;;;21.12;66.22;100027.59;4977731;28;45409;-63
2022/08/15 03:39:29;;;;;;;;;21.33;21.33;;;;;21.30;66.13;100057.69;4975774;28;45501;-65
2022/08/15 03:41:55;;;;;;;;;22.00;22.00;;;;;21.23;65.52;100048.31;4973470;28;46028;-66
2022/08/15 03:44:21;;;;;;;;;20.33;20.33;;;;;21.25;65.45;100060.59;4973132;28;46059;-63
2022/08/15 03:46:46;;;;;;;;;21.67;21.00;;;;;21.24;65.23;100058.03;4973139;28;45409;-65
2022/08/15 03:49:13;;;;;;;;;20.00;18.00;;;;;21.33;65.98;100065.53;4973244;28;45645;-66
2022/08/15 03:51:40;;;;;;;;;19.33;17.00;;;;;21.25;64.93;100057.09;4972778;28;46211;-64
2022/08/15 03:54:06;;;;;;;;;17.67;17.67;;;;;21.22;64.82;100057.25;4973851;28;45483;-67
2022/08/15 03:56:32;;;;;;;;;16.33;15.67;;;;;21.30;64.57;100058.56;4977703;28;45446;-68
2022/08/15 03:59:00;;;;;;;;;25.33;21.33;;;;;21.23;63.91;100045.66;4974870;28;45330;-67
2022/08/15 04:01:29;;;;;;;;;19.67;17.00;;;;;21.26;64.28;100059.69;4971103;28;45376;-68
2022/08/15 04:03:55;;;;;;;;;19.33;19.00;;;;;21.11;64.03;100033.84;4976219;28;45526;-65
2022/08/15 04:06:24;;;;;;;;;19.33;18.67;;;;;21.25;64.11;100057.09;4972711;28;45517;-66
2022/08/15 04:08:52;;;;;;;;;21.00;18.67;;;;;21.30;64.04;100055.03;4973296;28;45924;-69
2022/08/15 04:11:20;;;;;;;;;16.00;16.00;;;;;21.29;64.02;100053.34;4974616;28;46062;-65
2022/08/15 04:13:46;;;;;;;;;19.00;19.00;;;;;21.29;64.52;100040.88;4977057;28;45342;-68
2022/08/15 04:16:13;;;;;;;;;28.00;26.00;;;;;21.13;65.57;100039.97;4974219;28;45251;-64
2022/08/15 04:18:39;;;;;;;;;22.67;22.00;;;;;20.97;65.96;100037.22;4973362;28;45616;-68
2022/08/15 04:21:08;;;;;;;;;23.67;22.00;;;;;21.04;66.08;100045.75;4971138;28;46853;-64
2022/08/15 04:23:34;;;;;;;;;23.33;21.33;;;;;20.93;66.46;100046.34;4972976;28;45479;-65
2022/08/15 04:26:01;;;;;;;;;24.33;19.33;;;;;20.91;66.36;100045.56;4971390;28;45475;-65
2022/08/15 04:28:29;;;;;;;;;26.33;23.67;;;;;20.86;66.50;100050.25;4972115;28;45384;-67
2022/08/15 04:30:55;;;;;;;;;22.67;21.67;;;;;20.74;66.49;100047.28;4972417;28;46439;-64
2022/08/15 04:33:27;;;;;;;;;25.00;20.33;;;;;20.72;65.97;100054.47;4972666;28;45456;-67
2022/08/15 04:36:00;;;;;;;;;24.00;23.33;;;;;20.59;66.14;100039.22;4972614;28;45377;-66
2022/08/15 04:38:26;;;;;;;;;25.00;21.67;;;;;20.61;66.38;100054.16;4972508;28;45446;-64
2022/08/15 04:40:54;;;;;;;;;23.33;22.33;;;;;20.48;66.52;100037.94;4971842;28;46527;-67
2022/08/15 04:43:21;;;;;;;;;23.67;19.67;;;;;20.58;66.31;100053.47;4971991;28;45471;-63
2022/08/15 04:45:49;;;;;;;;;20.00;19.00;;;;;20.58;66.76;100054.31;4971013;28;45458;-63
2022/08/15 04:48:16;;;;;;;;;22.67;20.67;;;;;20.58;66.57;100049.00;4971449;28;45331;-66
2022/08/15 04:50:44;;;;;;;;;27.67;25.67;;;;;20.42;66.66;100032.91;4972281;28;45721;-67
2022/08/15 04:53:12;;;;;;;;;26.00;24.67;;;;;20.46;66.95;100038.94;4972012;28;45309;-68
2022/08/15 04:55:43;;;;;;;;;26.67;23.33;;;;;20.44;67.08;100043.47;4972346;28;45464;-63
2022/08/15 04:58:11;;;;;;;;;18.00;18.00;;;;;20.24;67.07;100018.72;4975366;28;45536;-64
2022/08/15 05:00:40;;;;;;;;;27.33;23.33;;;;;20.36;67.17;100032.34;4971488;28;45334;-65
2022/08/15 05:03:16;;;;;;;;;27.33;23.33;;;;;20.45;67.05;100040.72;4970694;28;45449;-64
2022/08/15 05:05:48;;;;;;;;;24.00;22.00;;;;;20.37;67.43;100036.75;4971689;28;45438;-66
2022/08/15 05:08:14;;;;;;;;;26.67;25.00;;;;;20.21;67.86;100016.22;4972229;28;45400;-68
2022/08/15 05:10:39;;;;;;;;;24.33;24.33;;;;;20.20;68.13;100027.78;4970360;28;46377;-64
2022/08/15 05:13:13;;;;;;;;;27.67;24.00;;;;;20.11;68.84;100020.25;4972011;28;45312;-66
2022/08/15 05:15:40;;;;;;;;;28.33;25.67;;;;;19.98;69.13;100006.72;4972478;28;45305;-65
2022/08/15 05:18:06;;;;;;;;;27.33;24.33;;;;;20.11;68.63;100014.94;4972262;28;45433;-69
2022/08/15 05:20:31;;;;;;;;;27.67;26.33;;;;;20.10;68.29;100015.91;4972228;28;45487;-64
2022/08/15 05:23:05;;;;;;;;;24.67;24.00;;;;;19.99;68.30;100007.56;4972428;28;45374;-64
2022/08/15 05:25:33;;;;;;;;;24.00;21.67;;;;;19.97;68.55;100009.44;4971879;28;45480;-68
2022/08/15 05:27:59;;;;;;;;;26.33;26.00;;;;;19.92;68.68;100023.81;4968523;28;45769;-65
2022/08/15 05:30:25;;;;;;;;;25.67;24.33;;;;;19.97;68.45;100026.25;4972096;28;45557;-67
2022/08/15 05:33:04;;;;;;;;;24.33;20.67;;;;;19.89;68.28;100029.28;4974150;28;45575;-65
2022/08/15 05:35:30;;;;;;;;;32.67;26.67;;;;;19.89;68.59;100023.09;4973015;28;45494;-67
2022/08/15 05:38:04;;;;;;;;;28.33;25.67;;;;;19.86;68.42;100002.84;4971659;28;45385;-64
2022/08/15 05:41:01;;;;;;;;;23.00;21.00;;;;;19.97;68.42;100015.59;4972870;28;45425;-68
2022/08/15 05:43:34;;;;;;;;;24.33;23.00;;;;;20.06;67.98;100019.63;4967660;28;45550;-71
2022/08/15 05:46:10;;;;;;;;;24.33;24.00;;;;;19.89;67.97;100000.03;4971821;28;45567;-69
2022/08/15 05:48:38;;;;;;;;;24.00;22.33;;;;;19.96;67.77;100011.25;4972213;28;45863;-69
2022/08/15 05:51:13;;;;;;;;;32.00;27.00;;;;;20.03;67.45;100028.63;4971047;28;45522;-66
2022/08/15 05:54:27;;;;;;;;;29.67;23.00;;;;;20.03;67.20;100025.09;4971259;28;45604;-65
2022/08/15 05:57:11;;;;;;;;;26.00;22.67;;;;;19.98;67.39;100021.78;4944839;28;45463;-65
2022/08/15 05:59:45;;;;;;;;;23.33;23.33;;;;;19.96;67.66;100007.72;4971695;28;45718;-66
2022/08/15 06:02:37;;;;;;;;;25.00;25.00;;;;;20.06;67.27;100015.16;4971448;28;45811;-65
2022/08/15 06:05:23;;;;;;;;;24.33;24.33;;;;;20.17;67.03;100037.69;4972491;28;45394;-64
2022/08/15 06:07:50;;;;;;;;;24.00;22.67;;;;;20.00;67.43;100012.78;4971245;28;45271;-65
2022/08/15 06:10:33;;;;;;;;;25.67;20.00;;;;;20.22;66.50;100030.38;4969925;28;45528;-64
2022/08/15 06:13:08;;;;;;;;;22.00;21.00;;;;;20.18;66.38;100029.66;4971453;28;46085;-64
2022/08/15 06:15:59;;;;;;;;;24.33;23.67;;;;;20.24;66.05;100040.00;4974774;28;45514;-65
2022/08/15 06:18:29;;;;;;;;;22.00;21.00;;;;;20.25;66.12;100033.75;4971514;28;45753;-64
2022/08/15 06:21:24;;;;;;;;;23.00;21.67;;;;;20.46;66.21;100037.13;4971394;28;45397;-67
2022/08/15 06:24:19;;;;;;;;;18.33;18.33;;;;;20.58;65.74;100027.72;4969317;28;47588;-64
2022/08/15 06:26:57;;;;;;;;;24.00;20.67;;;;;20.81;64.94;100028.31;4970679;28;45538;-65
2022/08/15 06:29:43;;;;;;;;;22.33;22.33;;;;;20.75;64.84;100030.34;4971307;28;45301;-63
2022/08/15 06:32:19;;;;;;;;;19.67;19.67;;;;;20.78;64.92;100029.34;4958824;28;45775;-66
2022/08/15 06:35:04;;;;;;;;;23.33;20.33;;;;;20.86;65.04;100023.66;4969511;28;47333;-69
2022/08/15 06:37:32;;;;;;;;;24.67;20.67;;;;;20.99;64.01;100030.03;4969362;28;45323;-69
2022/08/15 06:40:20;;;;;;;;;26.00;23.67;;;;;20.96;63.97;100023.06;4971158;28;45845;-70
2022/08/15 06:42:46;;;;;;;;;20.33;18.00;;;;;20.89;64.02;100019.00;4970990;28;45472;-69
2022/08/15 06:45:26;;;;;;;;;21.67;20.33;;;;;20.97;63.90;100023.91;4970532;28;46296;-70
2022/08/15 06:47:59;;;;;;;;;24.67;21.00;;;;;21.11;63.81;100026.72;4970156;28;45559;-69
2022/08/15 06:50:31;;;;;;;;;26.67;24.67;;;;;21.02;63.70;100029.00;4970838;28;45356;-69
2022/08/15 06:53:08;;;;;;;;;24.67;20.00;;;;;21.11;63.76;100021.38;4971753;28;45563;-66
2022/08/15 06:56:08;;;;;;;;;17.67;17.67;;;;;21.32;62.65;100018.53;4971976;28;45607;-66
2022/08/15 06:58:59;;;;;;;;;30.00;21.00;;;;;21.15;62.96;100020.28;4974717;28;45447;-65
2022/08/15 07:01:43;;;;;;;;;18.33;18.33;;;;;21.14;63.57;100026.56;4970551;28;45566;-65
2022/08/15 07:04:32;;;;;;;;;23.00;23.00;;;;;21.19;63.30;100015.69;4957187;28;45746;-65
2022/08/15 07:07:06;;;;;;;;;25.33;22.67;;;;;21.24;62.90;100016.28;4969857;28;45503;-68
2022/08/15 07:09:44;;;;;;;;;19.67;18.33;;;;;21.37;62.50;100022.66;4970236;28;45751;-64
2022/08/15 07:12:35;;;;;;;;;22.00;20.67;;;;;21.41;62.23;100007.41;4970422;28;45625;-68
2022/08/15 07:15:16;;;;;;;;;24.67;22.67;;;;;21.60;61.82;100021.44;4970303;28;45414;-66
2022/08/15 07:18:07;;;;;;;;;20.67;18.33;;;;;21.39;61.85;100009.25;4970365;28;45724;-67
2022/08/15 07:20:35;;;;;;;;;21.67;20.00;;;;;21.46;62.17;100024.00;4970042;28;45365;-68
2022/08/15 07:23:32;;;;;;;;;24.00;22.00;;;;;21.39;62.65;100006.59;4970746;28;45300;-67
2022/08/15 07:26:07;;;;;;;;;19.67;19.33;;;;;21.63;61.84;100022.22;4974248;28;45428;-65
2022/08/15 07:28:35;;;;;;;;;16.67;16.00;;;;;21.67;61.88;100029.97;4957668;28;45506;-69
2022/08/15 07:31:11;;;;;;;;;17.67;16.00;;;;;21.80;61.82;100020.31;4970297;28;45360;-66
2022/08/15 07:33:42;;;;;;;;;19.67;17.33;;;;;21.89;61.18;100015.44;4971131;28;45581;-68
2022/08/15 07:36:08;;;;;;;;;17.33;17.33;;;;;22.04;61.38;100025.22;4973435;28;45506;-70
2022/08/15 07:38:34;;;;;;;;;13.67;13.67;;;;;22.26;60.58;100011.56;4972789;28;45725;-65
2022/08/15 07:41:15;;;;;;;;;14.33;14.33;;;;;22.58;59.57;100022.16;4972496;28;45653;-67
2022/08/15 07:43:42;;;;;;;;;16.33;15.33;;;;;22.71;59.20;100023.16;4973821;28;45416;-67
2022/08/15 07:46:07;;;;;;;;;24.67;17.00;;;;;22.83;58.91;100033.09;4975270;28;45416;-65
2022/08/15 07:48:33;;;;;;;;;15.67;15.33;;;;;22.85;58.29;100003.59;4973462;28;45749;-66
2022/08/15 07:51:03;;;;;;;;;16.33;16.00;;;;;23.11;58.06;100026.06;4972903;28;45637;-66
2022/08/15 07:53:30;;;;;;;;;18.67;16.67;;;;;23.19;57.10;100023.81;4973081;28;45711;-67
2022/08/15 07:56:16;;;;;;;;;19.33;18.00;;;;;23.32;57.01;100009.69;4973365;28;45391;-67
2022/08/15 07:58:43;;;;;;;;;18.67;17.67;;;;;23.28;56.74;100022.41;4974866;28;45381;-69
2022/08/15 08:01:23;;;;;;;;;22.00;18.67;;;;;23.24;56.73;100023.53;4977472;28;45399;-65
2022/08/15 08:04:01;;;;;;;;;19.00;17.33;;;;;23.03;56.88;100005.19;4977313;28;45481;-63
2022/08/15 08:06:39;;;;;;;;;16.00;15.00;;;;;23.18;56.49;100027.44;4977916;28;45237;-64
2022/08/15 08:09:29;;;;;;;;;21.00;17.00;;;;;23.31;56.79;100021.34;4974454;28;45493;-63
2022/08/15 08:12:08;;;;;;;;;17.00;14.00;;;;;23.38;56.66;100026.19;4973180;28;45398;-65
2022/08/15 08:14:45;;;;;;;;;15.00;14.00;;;;;23.31;56.37;100022.19;4971389;28;45674;-67
2022/08/15 08:17:25;;;;;;;;;17.33;17.33;;;;;23.02;57.29;100013.31;4972937;28;45681;-64
2022/08/15 08:20:27;;;;;;;;;15.67;12.67;;;;;22.93;57.51;100019.19;4971457;28;45523;-69
2022/08/15 08:23:06;;;;;;;;;16.33;15.00;;;;;22.69;58.03;100008.19;4945697;28;45501;-67
2022/08/15 08:25:42;;;;;;;;;17.00;16.67;;;;;22.56;58.76;100021.38;4975572;28;45492;-66
2022/08/15 08:28:28;;;;;;;;;14.00;13.33;;;;;22.50;58.78;100001.25;4969197;28;45429;-65
2022/08/15 08:31:12;;;;;;;;;14.33;13.67;;;;;22.56;59.00;100024.91;4972560;28;45513;-69
2022/08/15 08:34:18;;;;;;;;;17.00;15.33;;;;;22.46;58.97;100007.72;4976079;28;45645;-67
2022/08/15 08:37:01;;;;;;;;;13.33;13.00;;;;;22.75;58.70;100023.81;4974080;28;45464;-73
2022/08/15 08:39:47;;;;;;;;;12.33;11.67;;;;;22.74;57.80;100030.97;4970833;28;45809;-68
2022/08/15 08:42:29;;;;;;;;;10.67;10.67;;;;;22.67;57.98;100020.75;4970394;28;45681;-67
2022/08/15 08:45:15;;;;;;;;;16.00;11.33;;;;;22.64;58.00;100013.78;4971288;28;45539;-68
2022/08/15 08:48:01;;;;;;;;;21.00;16.00;;;;;22.66;58.01;100019.91;4954275;28;45768;-68
2022/08/15 08:50:44;;;;;;;;;12.33;9.67;;;;;22.71;57.51;100014.25;4959852;28;45444;-70
2022/08/15 08:53:15;;;;;;;;;11.33;11.33;;;;;22.69;57.50;100013.50;4965879;28;45501;-68
2022/08/15 08:55:50;;;;;;;;;17.67;15.33;;;;;22.60;57.93;100009.56;4966138;28;45310;-67
2022/08/15 08:58:32;;;;;;;;;16.33;14.67;;;;;22.46;58.34;100009.53;4963228;28;45604;-66
2022/08/15 09:00:59;;;;;;;;;12.67;12.00;;;;;22.41;59.03;100016.00;4971562;28;45473;-67
2022/08/15 09:03:34;;;;;;;;;11.33;11.33;;;;;22.29;59.62;100016.72;4959075;28;46253;-65
2022/08/15 09:06:01;;;;;;;;;10.33;9.67;;;;;22.29;60.11;100022.03;4964888;28;45673;-69
2022/08/15 09:08:51;;;;;;;;;10.33;10.33;;;;;22.21;60.29;100009.16;4966124;28;45376;-68
2022/08/15 09:11:24;;;;;;;;;9.67;9.67;;;;;22.40;59.93;100022.28;4961458;28;45586;-69
2022/08/15 09:13:52;;;;;;;;;11.33;11.00;;;;;22.48;60.15;100018.31;4966543;28;46120;-68
2022/08/15 09:16:30;;;;;;;;;9.67;9.67;;;;;22.65;59.70;100027.03;4972404;28;45783;-65
2022/08/15 09:19:29;;;;;;;;;10.67;8.67;;;;;22.48;59.50;100029.84;4963623;28;45316;-64
2022/08/15 09:21:55;;;;;;;;;6.00;6.00;;;;;22.39;59.89;100025.88;4967554;28;45531;-68
2022/08/15 09:24:22;;;;;;;;;6.00;5.33;;;;;22.51;59.63;100021.63;4968178;28;45593;-70
2022/08/15 09:27:07;;;;;;;;;7.00;5.33;;;;;22.72;58.98;100016.84;4962880;28;45455;-64
2022/08/15 09:29:37;;;;;;;;;5.33;4.67;;;;;22.74;59.46;100017.63;4971244;28;45498;-66
2022/08/15 09:32:19;;;;;;;;;7.33;6.33;;;;;22.70;59.65;100009.88;4971439;28;45430;-71
2022/08/15 09:35:07;;;;;;;;;8.00;7.00;;;;;22.74;59.85;100025.63;4970357;28;47920;-66
2022/08/15 09:38:03;;;;;;;;;4.67;4.67;;;;;22.76;60.11;100023.72;4970074;28;45413;-69
2022/08/15 09:40:41;;;;;;;;;6.33;5.33;;;;;22.68;59.98;100001.09;4959398;28;45670;-67
2022/08/15 09:43:31;;;;;;;;;5.00;5.00;;;;;22.93;59.79;100027.19;4970511;28;45512;-72
2022/08/15 09:46:35;;;;;;;;;6.67;4.67;;;;;22.91;59.62;100034.44;4970126;28;45724;-69
2022/08/15 09:49:40;;;;;;;;;6.33;5.00;;;;;22.73;59.88;100012.34;4975912;28;45339;-67
2022/08/15 09:52:29;;;;;;;;;5.33;5.33;;;;;22.64;59.84;100013.78;4971807;28;45619;-70
2022/08/15 09:55:13;;;;;;;;;6.00;5.67;;;;;22.80;59.92;100035.06;4973445;28;45545;-66
2022/08/15 09:57:47;;;;;;;;;6.00;5.67;;;;;22.45;60.61;100008.69;4960097;28;45534;-68
2022/08/15 10:00:16;;;;;;;;;7.00;6.33;;;;;22.45;60.72;100035.38;4971124;28;45633;-66
2022/08/15 10:02:43;;;;;;;;;7.67;7.33;;;;;22.32;61.59;100045.88;4971265;28;45417;-65
2022/08/15 10:05:27;;;;;;;;;9.33;7.33;;;;;22.10;62.19;100037.38;4971003;28;45443;-66
2022/08/15 10:08:01;;;;;;;;;8.00;7.33;;;;;21.83;62.16;100029.97;4971618;28;45565;-64
2022/08/15 10:10:34;;;;;;;;;5.00;4.67;;;;;21.79;63.07;100039.09;4971036;28;45640;-66
2022/08/15 10:13:12;;;;;;;;;6.67;6.67;;;;;21.71;63.31;100044.84;4974001;28;45483;-68
2022/08/15 10:15:44;;;;;;;;;7.00;7.00;;;;;21.67;63.41;100039.78;4971074;28;45491;-67
2022/08/15 10:18:55;;;;;;;;;10.67;8.00;;;;;21.63;63.73;100044.41;4963485;28;46485;-69
2022/08/15 10:21:30;;;;;;;;;8.33;7.67;;;;;21.57;63.74;100037.59;4962056;28;45307;-69
2022/08/15 10:23:57;;;;;;;;;9.67;9.33;;;;;21.76;63.45;100045.44;4970899;28;45502;-74
2022/08/15 10:26:22;;;;;;;;;7.00;7.00;;;;;21.97;63.04;100038.06;4971587;28;45631;-65
2022/08/15 10:28:59;;;;;;;;;5.33;5.33;;;;;22.28;62.20;100040.78;4971363;28;46006;-67
2022/08/15 10:31:30;;;;;;;;;9.33;9.00;;;;;22.40;61.39;100030.28;4971345;28;45622;-66
2022/08/15 10:34:00;;;;;;;;;7.33;7.33;;;;;22.40;61.53;100040.09;4971412;28;45609;-69
2022/08/15 10:36:36;;;;;;;;;7.33;6.67;;;;;22.57;61.47;100033.78;4971488;28;45781;-72
2022/08/15 10:39:22;;;;;;;;;6.00;6.00;;;;;22.62;60.44;100029.88;4970511;28;46583;-74
2022/08/15 10:42:09;;;;;;;;;6.33;6.33;;;;;22.46;60.78;100009.53;4971939;28;46577;-68
2022/08/15 10:45:20;;;;;;;;;7.33;7.33;;;;;22.58;60.57;100030.16;4971498;28;45392;-78
2022/08/15 10:48:00;;;;;;;;;8.00;7.33;;;;;22.52;60.90;100015.38;4971890;28;45376;-74
2022/08/15 10:50:35;;;;;;;;;8.33;7.00;;;;;22.72;60.50;100032.00;4970822;28;46233;-71
2022/08/15 10:53:07;;;;;;;;;7.67;7.67;;;;;22.80;60.39;100035.94;4975318;28;46681;-69
2022/08/15 10:55:38;;;;;;;;;7.00;7.00;;;;;22.78;60.33;100036.97;4975191;28;45475;-68
2022/08/15 10:58:12;;;;;;;;;7.33;6.00;;;;;22.86;59.98;100032.88;4973023;28;45630;-71
2022/08/15 11:00:47;;;;;;;;;11.33;8.00;;;;;22.80;59.65;100019.03;4971010;28;46126;-68
2022/08/15 11:03:32;;;;;;;;;6.00;6.00;;;;;22.77;59.78;100028.09;4970784;28;45724;-67
2022/08/15 11:06:02;;;;;;;;;9.00;9.00;;;;;22.67;60.16;100024.28;4969777;28;45466;-71
2022/08/15 11:08:29;;;;;;;;;8.00;8.00;;;;;22.58;60.33;100024.81;4970981;28;45826;-69
2022/08/15 11:11:09;;;;;;;;;7.67;7.67;;;;;22.28;60.74;100004.34;4968685;28;46393;-68
2022/08/15 11:13:36;;;;;;;;;14.33;11.00;;;;;22.37;60.95;100022.44;4974216;28;45471;-65
2022/08/15 11:16:35;;;;;;;;;8.33;8.33;;;;;22.32;61.38;100032.53;4973692;28;45627;-70
2022/08/15 11:19:16;;;;;;;;;8.33;8.33;;;;;22.35;62.28;100029.72;4973397;28;45652;-69
2022/08/15 11:21:48;;;;;;;;;10.00;8.00;;;;;22.43;62.41;100035.44;4973415;28;46295;-67
2022/08/15 11:24:25;;;;;;;;;10.33;9.33;;;;;22.43;62.43;100038.09;4971477;28;45727;-67
2022/08/15 11:27:15;;;;;;;;;9.33;9.33;;;;;22.42;62.27;100039.06;4966739;28;45795;-67
2022/08/15 11:29:43;;;;;;;;;9.33;9.33;;;;;22.50;62.04;100029.75;4976764;28;45497;-69
2022/08/15 11:32:15;;;;;;;;;10.67;8.00;;;;;22.47;62.22;100028.13;4977692;28;45494;-69
2022/08/15 11:34:46;;;;;;;;;7.33;7.00;;;;;22.69;61.79;100042.88;4978592;28;45349;-67
2022/08/15 11:37:17;;;;;;;;;11.00;9.33;;;;;22.71;61.54;100024.94;4978553;28;45433;-69
2022/08/15 11:40:02;;;;;;;;;8.67;8.33;;;;;22.99;61.35;100041.06;4975997;28;45415;-70
2022/08/15 11:42:33;;;;;;;;;6.00;6.00;;;;;23.10;60.88;100032.38;4972774;28;45739;-67
2022/08/15 11:45:03;;;;;;;;;7.00;6.67;;;;;23.28;60.95;100038.44;4973141;28;45420;-68